• Join FlightAware (Why Join?)
  • Login
  • US Flag 
Trick or treat! (Boo!!) 
06:29PM EDT


 

Airport Tracker/Info


-or-


 

Live Flight TrackerFlight Track Log ✈ SWA1015 ✈ 16-Apr-2013 ✈ KSJC - KAUS

Flight Track Log - Related Links

Times and Time Zones

All times are in EDT time to prevent confusion due to time zone crossing. See the SWA1015 flight status page for this flight to view local times or setup timezone preferences in your user account.

Time Position Orientation Groundspeed Altitude Reporting Facility
EDT Latitude Longitude Course Direction KTS MPH feet Rate Location/Type
09:38AM 37.3833 -121.9500 141° Southeast 154 177 1,800  Level Northern Cal TRACON
09:39AM 37.4333 -121.9667 345° North 192 221 4,800 1,500 Climbing Northern Cal TRACON
09:40AM 37.4000 -121.9000 122° Southeast 230 265 5,000 960 Climbing Northern Cal TRACON
09:41AM 37.3667 -121.8333 122° Southeast 237 273 6,800 2,040 Climbing Northern Cal TRACON
09:42AM 37.3628 -121.8219 113° Southeast 235 270 7,600 3,180 Climbing Oakland Center
09:43AM 37.2894 -121.7450 140° Southeast 307 353 11,200 3,300 Climbing Oakland Center
09:44AM 37.2228 -121.1486 141° Southeast  Level Estimated
09:44AM 37.2178 -121.6611 137° Southeast 351 404 14,400  Level Oakland Center
09:45AM 37.1361 -121.5689 138° Southeast 392 451 17,300 2,340 Climbing Oakland Center
09:46AM 37.0531 -121.4808 140° Southeast 442 509 19,200 2,580 Climbing Oakland Center
09:47AM 36.9561 -121.3731 138° Southeast 464 534 22,600 3,360 Climbing Oakland Center
09:48AM 36.8372 -121.2408 138° Southeast 475 547 26,000 2,520 Climbing Oakland Center
09:49AM 36.7403 -121.1419 141° Southeast 487 560 27,800 1,740 Climbing Oakland Center
09:50AM 36.6322 -121.0253 139° Southeast 510 587 29,600 1,860 Climbing Oakland Center
09:51AM 36.5364 -120.8853 130° Southeast 531 611 31,700 1,740 Climbing Oakland Center
09:52AM 36.4431 -120.7383 128° Southeast 539 620 33,200 1,800 Climbing Oakland Center
09:53AM 36.3464 -120.5908 129° Southeast 548 631 35,400 1,860 Climbing Oakland Center
09:54AM 36.2506 -120.4447 129° Southeast 547 629 37,100 1,560 Climbing Oakland Center
09:55AM 36.1569 -120.3011 129° Southeast 538 619 38,600 1,560 Climbing Oakland Center
09:56AM 36.0650 -120.1622 129° Southeast 522 601 40,300 1,140 Climbing Oakland Center
09:57AM 35.9744 -120.0292 130° Southeast 507 583 41,000 300 Climbing Oakland Center
09:58AM 35.8833 -119.8911 129° Southeast 512 589 41,000  Level Oakland Center
09:59AM 35.7806 -119.7206 127° Southeast 513 590 41,000  Level Oakland Center
10:00AM 35.7164 -119.5572 116° Southeast 528 608 41,000  Level Oakland Center
10:01AM 35.6494 -119.3983 117° Southeast 523 602 41,000  Level Oakland Center
10:02AM 35.5847 -119.2406 117° Southeast 517 595 41,000  Level Oakland Center
10:03AM 35.5217 -119.0839 116° Southeast 511 588 41,000  Level Oakland Center
10:04AM 35.4550 -118.9281 118° Southeast 513 590 41,000  Level Oakland Center
10:05AM 35.3903 -118.7728 117° Southeast 511 588 41,000  Level Oakland Center
10:06AM 35.3253 -118.6194 117° Southeast 508 585 41,000  Level Oakland Center
10:07AM 35.2603 -118.4656 117° Southeast 508 585 41,000  Level Oakland Center
10:08AM 35.1950 -118.3128 118° Southeast 508 585 41,000  Level Oakland Center
10:09AM 35.1142 -118.1233 118° Southeast 508 585 41,000  Level Los Angeles Center
10:10AM 35.0478 -117.9714 118° Southeast 510 587 41,000  Level Los Angeles Center
10:11AM 34.9819 -117.8222 118° Southeast 506 582 41,000  Level Los Angeles Center
10:12AM 34.9053 -117.6428 117° Southeast 509 586 41,000  Level Los Angeles Center
10:13AM 34.8406 -117.4950 118° Southeast 504 580 41,000  Level Los Angeles Center
10:14AM 34.7744 -117.3442 118° Southeast 508 585 41,000  Level Los Angeles Center
10:15AM 34.7092 -117.1936 118° Southeast 507 583 41,000  Level Los Angeles Center
10:17AM 34.6422 -117.0436 118° Southeast 504 580 41,000  Level Los Angeles Center
10:18AM 34.5767 -116.8947 118° Southeast 499 574 41,000  Level Los Angeles Center
10:19AM 34.4931 -116.7164 120° Southeast 507 583 41,000  Level Los Angeles Center
10:20AM 34.4278 -116.5683 118° Southeast 502 578 41,000  Level Los Angeles Center
10:21AM 34.3625 -116.4219 118° Southeast 497 572 41,000  Level Los Angeles Center
10:22AM 34.2956 -116.2739 119° Southeast 502 578 41,000  Level Los Angeles Center
10:23AM 34.2308 -116.1250 118° Southeast 502 578 41,000  Level Los Angeles Center
10:24AM 34.1508 -115.9517 119° Southeast 495 570 41,000  Level Los Angeles Center
10:25AM 34.0697 -115.7778 119° Southeast 491 565 41,000  Level Los Angeles Center
10:26AM 34.0031 -115.6331 119° Southeast 493 567 41,000  Level Los Angeles Center
10:27AM 33.9344 -115.4858 119° Southeast 500 575 41,000  Level Los Angeles Center
10:28AM 33.8658 -115.3392 119° Southeast 502 578 41,000  Level Los Angeles Center
10:29AM 33.7978 -115.1919 119° Southeast 504 580 41,000  Level Los Angeles Center
10:30AM 33.7283 -115.0444 119° Southeast 505 581 41,000  Level Los Angeles Center
10:31AM 33.6592 -114.8975 119° Southeast 505 581 41,000  Level Los Angeles Center
10:32AM 33.5925 -114.7489 118° Southeast 506 582 41,000  Level Los Angeles Center
10:33AM 33.5569 -114.5489 102° East 511 588 41,000  Level Los Angeles Center
10:34AM 33.5286 -114.3856 102° East 502 578 41,000  Level Los Angeles Center
10:35AM 33.5003 -114.2228 102° East 503 579 41,000  Level Los Angeles Center
10:36AM 33.4700 -114.0606 103° East 499 574 41,000  Level Los Angeles Center
10:37AM 33.4656 -114.0100 96° East 499 574 41,000  Level Albuquerque Center
10:38AM 33.4356 -113.8489 103° East 497 572 41,000  Level Albuquerque Center
10:39AM 33.4064 -113.6858 102° East 500 575 41,000  Level Albuquerque Center
10:40AM 33.3767 -113.5231 102° East 502 578 41,000  Level Albuquerque Center
10:41AM 33.3467 -113.3597 102° East 502 578 41,000  Level Albuquerque Center
10:42AM 33.3169 -113.1992 102° East 497 572 41,000  Level Albuquerque Center
10:43AM 33.2803 -113.0033 103° East 500 575 41,000  Level Albuquerque Center
10:44AM 33.2497 -112.8425 103° East 497 572 41,000  Level Albuquerque Center
10:45AM 33.2189 -112.6808 103° East 497 572 41,000  Level Albuquerque Center
10:46AM 33.1856 -112.5069 103° East 497 572 41,000  Level Albuquerque Center
10:47AM 33.1553 -112.3458 103° East 500 575 41,000  Level Albuquerque Center
10:48AM 33.1236 -112.1853 103° East 501 577 41,000  Level Albuquerque Center
10:49AM 33.0925 -112.0267 103° East 497 572 41,000  Level Albuquerque Center
10:50AM 33.0622 -111.8692 103° East 492 566 41,000  Level Albuquerque Center
10:51AM 33.0253 -111.6800 103° East 491 565 41,000  Level Albuquerque Center
10:52AM 32.9931 -111.5258 104° East 485 558 41,000  Level Albuquerque Center
10:53AM 32.9625 -111.3692 103° East 487 560 41,000  Level Albuquerque Center
10:54AM 32.9311 -111.2133 103° East 487 560 41,000  Level Albuquerque Center
10:55AM 32.8992 -111.0569 104° East 489 563 41,000  Level Albuquerque Center
10:56AM 32.8672 -110.9025 104° East 486 559 41,000  Level Albuquerque Center
10:57AM 32.8294 -110.7156 103° East 487 560 41,000  Level Albuquerque Center
10:58AM 32.7997 -110.5764 104° East 486 559 41,000  Level Albuquerque Center
10:59AM 32.7597 -110.3911 104° East 486 559 41,000  Level Albuquerque Center
11:00AM 32.7275 -110.2375 104° East 487 560 41,000  Level Albuquerque Center
11:01AM 32.6956 -110.0836 104° East 487 560 41,000  Level Albuquerque Center
11:02AM 32.6617 -109.9303 105° East 485 558 41,000  Level Albuquerque Center
11:03AM 32.6278 -109.7794 105° East 483 556 41,000  Level Albuquerque Center
11:04AM 32.5881 -109.5975 104° East 481 554 41,000  Level Albuquerque Center
11:05AM 32.5553 -109.4469 104° East 479 551 41,000  Level Albuquerque Center
11:06AM 32.5208 -109.2947 105° East 483 556 41,000  Level Albuquerque Center
11:08AM 32.4881 -109.1428 104° East 485 558 41,000  Level Albuquerque Center
11:09AM 32.4475 -108.9622 105° East 482 555 41,000  Level Albuquerque Center
11:10AM 32.4139 -108.8119 105° East 479 551 41,000  Level Albuquerque Center
11:11AM 32.3792 -108.6600 105° East 483 556 41,000  Level Albuquerque Center
11:12AM 32.3447 -108.5083 105° East 483 556 41,000  Level Albuquerque Center
11:13AM 32.3069 -108.3392 105° East 481 554 41,000  Level Albuquerque Center
11:14AM 32.2719 -108.1875 105° East 481 554 41,000  Level Albuquerque Center
11:15AM 32.2367 -108.0383 106° East 477 549 41,000  Level Albuquerque Center
11:16AM 32.2025 -107.8878 105° East 477 549 41,000  Level Albuquerque Center
11:17AM 32.1600 -107.7067 105° East 478 550 41,000  Level Albuquerque Center
11:18AM 32.1253 -107.5558 105° East 481 554 41,000  Level Albuquerque Center
11:19AM 32.0889 -107.4056 106° East 481 554 41,000  Level Albuquerque Center
11:20AM 32.0536 -107.2558 105° East 481 554 41,000  Level Albuquerque Center
11:21AM 32.0119 -107.0769 105° East 478 550 41,000  Level Albuquerque Center
11:22AM 31.9769 -106.9278 105° East 477 549 41,000  Level Albuquerque Center
11:23AM 31.9403 -106.7817 106° East 472 543 41,000  Level Albuquerque Center
11:24AM 31.9031 -106.6331 106° East 475 547 41,000  Level Albuquerque Center
11:25AM 31.8667 -106.4886 106° East 477 549 41,000  Level Albuquerque Center
11:26AM 31.8250 -106.3094 105° East 477 549 41,000  Level Albuquerque Center
11:27AM 31.8000 -106.1586 101° East 474 545 41,000  Level Albuquerque Center
11:28AM 31.7825 -106.0053 98° East 473 544 41,000  Level Albuquerque Center
11:29AM 31.7633 -105.8500 98° East 479 551 41,000  Level Albuquerque Center
11:30AM 31.7444 -105.6942 98° East 481 554 41,000  Level Albuquerque Center
11:31AM 31.7258 -105.5372 98° East 485 558 41,000  Level Albuquerque Center
11:32AM 31.7022 -105.3517 98° East 480 552 41,000  Level Albuquerque Center
11:33AM 31.6828 -105.1969 98° East 478 550 41,000  Level Albuquerque Center
11:34AM 31.6642 -105.0417 98° East 480 552 41,000  Level Albuquerque Center
11:35AM 31.6450 -104.8867 98° East 479 551 41,000  Level Albuquerque Center
11:36AM 31.6256 -104.7319 98° East 479 551 41,000  Level Albuquerque Center
11:38AM 31.6042 -104.5758 99° East 480 552 41,000  Level Albuquerque Center
11:39AM 31.5839 -104.4219 99° East 479 551 41,000  Level Albuquerque Center
11:40AM 31.5603 -104.2347 98° East 481 554 41,000  Level Albuquerque Center
11:41AM 31.5394 -104.0789 99° East 482 555 41,000  Level Albuquerque Center
11:42AM 31.5178 -103.9250 99° East 481 554 41,000  Level Albuquerque Center
11:43AM 31.4972 -103.7706 99° East 480 552 41,000  Level Albuquerque Center
11:44AM 31.4750 -103.6206 100° East 477 549 41,000  Level Albuquerque Center
11:45AM 31.4550 -103.4661 99° East 477 549 41,000  Level Albuquerque Center
11:46AM 31.4333 -103.2814 98° East 478 550 41,000  Level Albuquerque Center
11:47AM 31.4150 -103.1286 98° East 476 548 41,000  Level Albuquerque Center
11:48AM 31.3944 -102.9756 99° East 476 548 41,000  Level Albuquerque Center
11:49AM 31.3750 -102.8211 98° East 478 550 41,000  Level Albuquerque Center
11:50AM 31.3547 -102.6675 99° East 478 550 41,000  Level Albuquerque Center
11:51AM 31.3347 -102.5103 98° East 480 552 41,000  Level Albuquerque Center
11:52AM 31.3103 -102.3244 99° East 484 557 41,000  Level Albuquerque Center
11:53AM 31.2906 -102.1678 98° East 486 559 41,000  Level Albuquerque Center
11:54AM 31.2686 -102.0142 99° East 485 558 41,000  Level Albuquerque Center
11:55AM 31.2481 -101.8453 98° East 481 554 41,000  Level Albuquerque Center
11:56AM 31.2256 -101.6919 100° East 480 552 41,000  Level Albuquerque Center
11:57AM 31.2006 -101.5067 99° East 483 556 41,000  Level Houston Center
11:58AM 31.1792 -101.3525 99° East 481 554 41,000  Level Houston Center
11:59AM 31.1575 -101.2039 100° East 484 557 41,000  Level Houston Center
12:00PM 31.1378 -101.0481 98° East 485 558 41,000  Level Houston Center
12:01PM 31.1161 -100.8928 99° East 486 559 41,000  Level Houston Center
12:02PM 31.0942 -100.7392 99° East 482 555 41,000  Level Houston Center
12:03PM 31.0667 -100.5564 100° East 477 549 41,000  Level Houston Center
12:04PM 31.0439 -100.4047 100° East 474 545 41,000  Level Houston Center
12:06PM 31.0222 -100.2517 99° East 477 549 41,000 -300 Level Houston Center
12:07PM 30.9994 -100.0986 100° East 479 551 40,500 -780 Descending Houston Center
12:08PM 30.9769 -99.9453 100° East 479 551 39,500 -960 Descending Houston Center
12:09PM 30.9539 -99.7925 100° East 478 550 38,500 -2,040 Descending Houston Center
12:10PM 30.9258 -99.6108 100° East 476 548 35,300 -2,820 Descending Houston Center
12:11PM 30.9006 -99.4583 101° East 478 550 32,700 -2,400 Descending Houston Center
12:12PM 30.8789 -99.3114 100° East 462 532 30,400 -2,280 Descending Houston Center
12:13PM 30.8564 -99.1692 100° East 447 514 28,100 -2,160 Descending Houston Center
12:14PM 30.8342 -99.0350 101° East 430 495 26,000 -2,280 Descending Houston Center
12:15PM 30.8094 -98.8806 101° East 411 473 23,500 -2,220 Descending Houston Center
12:16PM 30.7906 -98.7519 100° East 403 464 21,500 -1,980 Descending Houston Center
12:17PM 30.7786 -98.6231 96° East 399 459 19,400 -2,100 Descending Houston Center
12:18PM 30.7661 -98.4983 97° East 388 447 17,200 -2,100 Descending Houston Center
12:19PM 30.7531 -98.3756 97° East 382 440 15,100 -2,040 Descending Houston Center
12:20PM 30.7400 -98.2567 97° East 370 426 13,000 -2,040 Descending Houston Center
12:21PM 30.7267 -98.1394 98° East 366 421 11,000 -1,620 Descending Houston Center
12:22PM 30.6936 -98.0247 108° East 327 376 9,700 -1,200 Descending Houston Center
12:23PM 30.6481 -97.9453 124° Southeast 298 343 8,600 -1,020 Descending Houston Center
12:24PM 30.6031 -97.8675 124° Southeast 291 335 7,600 -1,260 Descending Houston Center
12:25PM 30.5608 -97.7894 122° Southeast 287 330 6,000 -1,080 Descending Houston Center
12:26PM 30.5225 -97.7142 121° Southeast 278 320 5,400 -780 Descending Houston Center
12:27PM 30.4706 -97.6864 155° Southeast 225 259 4,500 -780 Descending Houston Center
12:28PM 30.4069 -97.6842 178° South 199 229 3,800 -720 Descending Houston Center
12:29PM 30.3575 -97.6831 179° South 183 211 3,100 -720 Descending Houston Center
12:30PM 30.3086 -97.6819 179° South 177 204 2,400 -780 Descending Houston Center
12:31PM 30.2617 -97.6800 178° South 173 199 1,500 -660 Descending Houston Center
12:32PM 30.2286 -97.6803 180° South 153 176 1,100 -420 Descending Houston Center
12:34PM 30.1945 -97.6699 180° South  Level Estimated
12:41PM 30.1945 -97.6699 180° South  Level Estimated